Time;durP1;ratioP1;P1;durP2;ratioP2;P2;SDS_P1;SDS_P2;PMS_P1;PMS_P2;Temp;Humidity;BMP_temperature;BMP_pressure;BME280_temperature;BME280_humidity;BME280_pressure;Samples;Min_cycle;Max_cycle;Signal;HPM_P1;HPM_P2
2022/12/14 00:00:47;;;;;;;70.47;27.45;;;-3.10;99.90;;;;;;5034639;28;20037;-77
2022/12/14 00:03:14;;;;;;;71.07;27.00;;;-3.10;99.90;;;;;;5018599;28;20076;-77
2022/12/14 00:05:40;;;;;;;68.47;27.70;;;-2.00;99.90;;;;;;5035265;28;20049;-77
2022/12/14 00:08:07;;;;;;;74.18;26.15;;;-2.00;99.90;;;;;;5018793;28;20048;-77
2022/12/14 00:10:34;;;;;;;70.78;27.63;;;-3.10;99.90;;;;;;5034713;28;20056;-77
2022/12/14 00:13:00;;;;;;;65.97;25.25;;;-3.10;99.90;;;;;;5035235;28;20048;-78
2022/12/14 00:15:26;;;;;;;76.25;28.60;;;-3.10;99.90;;;;;;5034798;28;20114;-77
2022/12/14 00:17:52;;;;;;;72.32;26.90;;;-3.20;99.90;;;;;;5034866;28;20479;-78
2022/12/14 00:20:18;;;;;;;66.88;26.10;;;-3.20;99.90;;;;;;5035234;28;20081;-77
2022/12/14 00:22:44;;;;;;;65.68;26.13;;;-3.20;99.90;;;;;;5018111;28;20569;-81
2022/12/14 00:25:10;;;;;;;58.30;25.05;;;-2.60;99.90;;;;;;5018830;28;20041;-77
2022/12/14 00:27:46;;;;;;;62.90;26.80;;;-3.30;99.90;;;;;;5035024;28;20041;-79
2022/12/14 00:30:13;;;;;;;66.55;25.50;;;-3.30;99.90;;;;;;5019227;28;20361;-79
2022/12/14 00:32:39;;;;;;;67.43;25.63;;;-3.30;99.90;;;;;;5035112;28;20073;-78
2022/12/14 00:35:10;;;;;;;66.90;24.63;;;-3.30;99.90;;;;;;5034867;28;20504;-78
2022/12/14 00:37:36;;;;;;;61.30;24.65;;;-3.40;99.90;;;;;;5018817;28;20127;-78
2022/12/14 00:40:04;;;;;;;61.30;23.77;;;-3.40;99.90;;;;;;5035320;28;20167;-78
2022/12/14 00:42:30;;;;;;;65.72;25.08;;;-3.50;99.90;;;;;;5018974;28;20049;-78
2022/12/14 00:44:55;;;;;;;69.68;26.95;;;-3.50;99.90;;;;;;5019451;28;20432;-78
2022/12/14 00:47:21;;;;;;;60.60;25.15;;;-3.50;99.90;;;;;;5035160;28;20037;-79
2022/12/14 00:49:47;;;;;;;62.80;24.17;;;-3.50;99.90;;;;;;5018973;28;20075;-79
2022/12/14 00:52:13;;;;;;;61.60;25.10;;;-3.50;99.90;;;;;;5019173;28;20045;-79
2022/12/14 00:54:39;;;;;;;63.25;24.10;;;-2.80;99.90;;;;;;5034747;28;20055;-79
2022/12/14 00:57:05;;;;;;;65.10;24.15;;;-3.70;99.90;;;;;;5032940;28;20047;-79
2022/12/14 00:59:31;;;;;;;60.97;24.25;;;-3.70;99.90;;;;;;5017326;28;20137;-79
2022/12/14 01:01:57;;;;;;;57.72;24.08;;;-3.40;99.90;;;;;;5032927;28;20068;-78
2022/12/14 01:04:23;;;;;;;56.50;23.50;;;-3.90;99.90;;;;;;5016739;28;20099;-78
2022/12/14 01:06:51;;;;;;;62.22;23.17;;;-3.40;99.90;;;;;;5017177;28;20391;-77
2022/12/14 01:09:18;;;;;;;58.22;22.73;;;-4.00;99.90;;;;;;5033476;28;20388;-77
2022/12/14 01:11:44;;;;;;;65.20;23.92;;;-4.20;99.90;;;;;;5033355;28;20056;-77
2022/12/14 01:14:12;;;;;;;65.95;25.20;;;-4.20;99.90;;;;;;5017282;28;20045;-77
2022/12/14 01:16:39;;;;;;;67.60;25.13;;;-4.10;99.90;;;;;;5016467;28;20045;-78
2022/12/14 01:19:05;;;;;;;70.85;25.45;;;-4.10;99.90;;;;;;5017553;28;20041;-79
2022/12/14 01:21:31;;;;;;;68.03;25.38;;;-4.10;99.90;;;;;;5033549;28;20037;-77
2022/12/14 01:24:02;;;;;;;66.82;24.48;;;-4.00;99.90;;;;;;5016847;28;20562;-80
2022/12/14 01:26:29;;;;;;;64.53;24.83;;;-4.10;99.90;;;;;;5016804;28;20124;-78
2022/12/14 01:28:57;;;;;;;59.63;23.92;;;-3.10;99.90;;;;;;5033403;28;20494;-78
2022/12/14 01:31:36;;;;;;;61.90;22.77;;;-4.20;99.90;;;;;;5033568;28;20115;-77
2022/12/14 01:34:03;;;;;;;57.42;21.88;;;-4.30;99.90;;;;;;5033709;28;20095;-77
2022/12/14 01:36:31;;;;;;;68.95;24.33;;;-4.40;99.90;;;;;;5016880;28;20046;-79
2022/12/14 01:39:04;;;;;;;62.17;24.77;;;-4.40;99.90;;;;;;5016663;28;20045;-79
2022/12/14 01:41:32;;;;;;;62.95;23.90;;;-4.40;99.90;;;;;;5033717;28;20037;-78
2022/12/14 01:44:01;;;;;;;65.57;24.58;;;-4.40;99.90;;;;;;5033237;28;20049;-78
2022/12/14 01:46:34;;;;;;;62.33;24.10;;;-4.50;99.90;;;;;;5016838;28;20041;-78
2022/12/14 01:49:22;;;;;;;66.22;24.48;;;-4.50;99.90;;;;;;5033239;28;20081;-78
2022/12/14 01:51:55;;;;;;;55.25;21.45;;;-4.50;99.90;;;;;;5033368;28;20081;-78
2022/12/14 01:54:22;;;;;;;52.35;20.75;;;-4.10;99.90;;;;;;5032955;28;20041;-79
2022/12/14 01:56:49;;;;;;;56.75;21.40;;;-4.80;99.90;;;;;;5033269;28;20387;-78
2022/12/14 01:59:25;;;;;;;53.88;21.10;;;-4.90;99.90;;;;;;5032942;28;20045;-78
2022/12/14 02:01:52;;;;;;;58.80;23.17;;;-4.90;99.90;;;;;;5016450;28;20403;-78
2022/12/14 02:04:19;;;;;;;62.03;23.70;;;-5.00;99.90;;;;;;5032870;28;20046;-78
2022/12/14 02:06:47;;;;;;;59.40;23.08;;;-5.00;99.90;;;;;;5000062;28;20049;-78
2022/12/14 02:09:19;;;;;;;59.22;23.30;;;-5.00;99.90;;;;;;5032792;28;20045;-78
2022/12/14 02:12:05;;;;;;;62.58;23.40;;;-5.00;99.90;;;;;;5016899;28;20045;-78
2022/12/14 02:14:33;;;;;;;62.28;23.98;;;-5.00;99.90;;;;;;5033047;28;20045;-78
2022/12/14 02:17:00;;;;;;;65.07;24.48;;;-4.90;99.90;;;;;;5019810;28;20051;-78
2022/12/14 02:19:25;;;;;;;66.70;24.60;;;-4.20;99.90;;;;;;5020174;28;20149;-78
2022/12/14 02:21:51;;;;;;;64.85;24.10;;;-4.90;99.90;;;;;;4987567;28;20439;-78
2022/12/14 02:24:33;;;;;;;60.42;23.35;;;-5.00;99.90;;;;;;5036350;28;20049;-78
2022/12/14 02:27:04;;;;;;;58.60;21.48;;;-4.80;99.90;;;;;;5036838;28;20544;-77
2022/12/14 02:29:59;;;;;;;57.40;21.98;;;-5.30;99.90;;;;;;5036425;28;20045;-77
2022/12/14 02:32:56;;;;;;;58.28;21.58;;;-5.30;99.90;;;;;;5019851;28;20045;-77
2022/12/14 02:35:32;;;;;;;51.58;20.92;;;-5.30;99.90;;;;;;5052722;28;20086;-77
2022/12/14 02:38:27;;;;;;;59.38;20.58;;;-5.30;99.90;;;;;;5020062;28;20037;-77
2022/12/14 02:41:13;;;;;;;61.20;22.42;;;-5.30;99.90;;;;;;4998050;28;20052;-77
2022/12/14 02:43:49;;;;;;;59.70;22.13;;;-5.30;99.90;;;;;;5039435;28;20049;-77
2022/12/14 02:46:23;;;;;;;59.55;22.27;;;-4.80;99.90;;;;;;5023152;28;20033;-77
2022/12/14 02:49:06;;;;;;;61.22;23.10;;;-5.40;99.90;;;;;;5039583;28;20093;-78
2022/12/14 02:51:57;;;;;;;57.85;22.00;;;-5.50;99.90;;;;;;5023209;28;20088;-77
2022/12/14 02:54:34;;;;;;;60.53;21.33;;;-5.40;99.90;;;;;;5023346;28;20041;-77
2022/12/14 02:57:18;;;;;;;52.63;21.15;;;-5.50;99.90;;;;;;5023281;28;20133;-76
2022/12/14 02:59:45;;;;;;;58.60;21.75;;;-5.60;99.90;;;;;;5039638;28;20045;-77
2022/12/14 03:02:13;;;;;;;54.00;21.45;;;-5.60;99.90;;;;;;5039435;28;20091;-77
2022/12/14 03:04:46;;;;;;;57.25;21.35;;;-5.70;99.90;;;;;;5039697;28;20087;-78
2022/12/14 03:07:47;;;;;;;55.03;21.15;;;-5.70;99.90;;;;;;5022929;28;20037;-77
2022/12/14 03:10:20;;;;;;;57.88;21.63;;;-5.70;99.90;;;;;;5025623;28;20045;-77
2022/12/14 03:12:55;;;;;;;57.60;22.05;;;-5.80;99.90;;;;;;5039487;28;20049;-77
2022/12/14 03:15:24;;;;;;;52.03;19.92;;;-5.80;99.90;;;;;;5035605;28;20510;-77
2022/12/14 03:17:55;;;;;;;52.47;20.88;;;-5.90;99.90;;;;;;5019712;28;20546;-77
2022/12/14 03:20:24;;;;;;;59.50;22.30;;;-5.90;99.90;;;;;;5035875;28;20529;-77
2022/12/14 03:23:07;;;;;;;61.65;21.02;;;-6.00;99.90;;;;;;5035553;28;20052;-77
2022/12/14 03:26:02;;;;;;;53.72;22.00;;;-6.00;99.90;;;;;;5035887;28;20522;-76
2022/12/14 03:28:36;;;;;;;57.25;21.85;;;-5.90;99.90;;;;;;4981265;28;20529;-76
2022/12/14 03:31:07;;;;;;;63.88;23.50;;;-5.90;99.90;;;;;;5019345;28;20509;-77
2022/12/14 03:33:36;;;;;;;61.60;23.40;;;-5.80;99.90;;;;;;5036402;28;20057;-77
2022/12/14 03:36:09;;;;;;;70.45;25.63;;;-5.70;99.90;;;;;;5036357;28;20041;-77
2022/12/14 03:38:40;;;;;;;63.95;21.73;;;-5.70;99.90;;;;;;5019220;28;20094;-78
2022/12/14 03:41:30;;;;;;;53.25;21.08;;;-5.00;99.90;;;;;;5019744;28;20143;-77
2022/12/14 03:44:14;;;;;;;58.72;20.67;;;-5.80;99.90;;;;;;5019242;28;20046;-76
2022/12/14 03:47:01;;;;;;;54.47;20.73;;;-5.90;99.90;;;;;;5018846;28;20037;-77
2022/12/14 03:49:54;;;;;;;53.65;20.08;;;-5.90;99.90;;;;;;5018819;28;20067;-78
2022/12/14 03:52:29;;;;;;;56.90;21.95;;;-5.90;99.90;;;;;;5017882;28;20044;-78
2022/12/14 03:55:19;;;;;;;60.35;21.55;;;-6.00;99.90;;;;;;5019669;28;20103;-78
2022/12/14 03:57:51;;;;;;;59.15;22.45;;;-6.00;99.90;;;;;;5035472;28;20132;-78
2022/12/14 04:00:21;;;;;;;58.40;22.52;;;-6.00;99.90;;;;;;5018947;28;20049;-80
2022/12/14 04:02:59;;;;;;;53.60;20.63;;;-6.00;99.90;;;;;;5035150;28;20082;-77
2022/12/14 04:05:42;;;;;;;53.15;19.85;;;-6.00;99.90;;;;;;5018749;28;20140;-78
2022/12/14 04:08:32;;;;;;;50.70;20.17;;;-6.00;99.90;;;;;;5035158;28;20494;-78
2022/12/14 04:19:46;;;;;;;55.83;20.20;;;-6.20;99.90;;;;;;5022591;28;20092;-78
2022/12/14 04:22:17;;;;;;;56.83;21.60;;;-5.90;99.90;;;;;;5036597;28;20045;-79
2022/12/14 04:28:02;;;;;;;55.03;21.05;;;-6.30;99.90;;;;;;5036260;28;20041;-78
2022/12/14 04:30:31;;;;;;;;;;;-6.30;99.90;;;;;;5036266;28;20476;-78
2022/12/14 04:35:54;;;;;;;55.80;21.45;;;-6.30;99.90;;;;;;4685840;28;10000435;-83
2022/12/14 04:38:31;;;;;;;52.92;21.38;;;-6.30;99.90;;;;;;5016844;28;20049;-78
2022/12/14 04:41:04;;;;;;;64.93;22.45;;;-5.30;99.90;;;;;;5017379;28;20087;-78
2022/12/14 04:43:37;;;;;;;61.95;21.48;;;-6.30;99.90;;;;;;5034389;28;20075;-79
2022/12/14 04:46:13;;;;;;;64.93;22.10;;;-6.30;99.90;;;;;;5033755;28;20057;-77
2022/12/14 04:48:48;;;;;;;60.88;21.55;;;-6.20;99.90;;;;;;5033712;28;20099;-80
2022/12/14 04:51:37;;;;;;;62.83;22.98;;;-5.10;99.90;;;;;;5034170;28;20037;-79
2022/12/14 04:54:30;;;;;;;63.60;22.40;;;-6.10;99.90;;;;;;5034181;28;20092;-78
2022/12/14 04:57:20;;;;;;;53.40;19.92;;;-6.10;99.90;;;;;;4999982;28;20101;-80
2022/12/14 04:59:46;;;;;;;54.60;20.13;;;-5.70;99.90;;;;;;5034098;28;20050;-78
2022/12/14 05:02:42;;;;;;;56.75;20.60;;;-6.30;99.90;;;;;;5033905;28;20045;-80
2022/12/14 05:05:34;;;;;;;58.42;21.42;;;-6.30;99.90;;;;;;5016512;28;20049;-79
2022/12/14 05:08:12;;;;;;;57.28;20.98;;;-6.30;99.90;;;;;;5033711;28;20076;-79
2022/12/14 05:10:45;;;;;;;51.10;19.63;;;-6.30;99.90;;;;;;4996047;28;20129;-79
2022/12/14 05:13:20;;;;;;;53.72;20.70;;;-6.30;99.90;;;;;;5012521;28;20136;-78
2022/12/14 05:15:53;;;;;;;57.08;20.38;;;-6.20;99.90;;;;;;5023332;28;20058;-77
2022/12/14 05:18:19;;;;;;;57.00;20.67;;;-6.20;99.90;;;;;;5017731;28;20037;-79
2022/12/14 05:20:46;;;;;;;62.33;21.10;;;-6.20;99.90;;;;;;5032869;28;20052;-79
2022/12/14 05:23:13;;;;;;;57.78;22.33;;;-6.20;99.90;;;;;;5016252;28;20105;-79
2022/12/14 05:25:38;;;;;;;57.13;20.77;;;-6.20;99.90;;;;;;5032800;28;20048;-80
2022/12/14 05:28:04;;;;;;;51.30;19.50;;;-6.20;99.90;;;;;;5051611;28;20041;-81
2022/12/14 05:30:30;;;;;;;57.45;19.13;;;-6.20;99.90;;;;;;5019199;28;20041;-80
2022/12/14 05:32:56;;;;;;;51.45;20.20;;;-6.40;99.90;;;;;;5035829;28;20045;-79
2022/12/14 05:35:22;;;;;;;53.55;20.17;;;-6.40;99.90;;;;;;5051778;28;20037;-79
2022/12/14 05:37:48;;;;;;;60.30;20.75;;;-6.30;99.90;;;;;;5052534;28;20040;-79
2022/12/14 05:40:14;;;;;;;54.58;21.65;;;-6.30;99.90;;;;;;5036219;28;20043;-79
2022/12/14 05:42:39;;;;;;;60.92;22.13;;;-6.30;99.90;;;;;;5037847;28;20036;-79
2022/12/14 05:45:06;;;;;;;54.58;20.20;;;-6.30;99.90;;;;;;5054487;28;20049;-79
2022/12/14 05:47:33;;;;;;;57.55;20.92;;;-6.30;99.90;;;;;;5037351;28;20044;-80
2022/12/14 05:49:58;;;;;;;62.22;21.90;;;-6.40;99.90;;;;;;5037656;28;20045;-78
2022/12/14 05:52:25;;;;;;;60.30;21.00;;;-6.30;99.90;;;;;;5038208;28;20055;-79
2022/12/14 05:54:51;;;;;;;60.17;22.55;;;-5.00;99.90;;;;;;5037652;28;20336;-78
2022/12/14 05:57:17;;;;;;;67.75;23.15;;;-6.20;99.90;;;;;;5021901;28;20550;-79
2022/12/14 05:59:43;;;;;;;62.08;22.13;;;-6.20;99.90;;;;;;5037931;28;20087;-79
2022/12/14 06:02:09;;;;;;;62.60;22.70;;;-6.10;99.90;;;;;;5037919;28;20052;-79
2022/12/14 06:04:35;;;;;;;63.38;21.45;;;-6.10;99.90;;;;;;5054460;28;20045;-79
2022/12/14 06:07:00;;;;;;;63.08;23.02;;;-6.10;99.90;;;;;;5037301;28;20123;-79
2022/12/14 06:09:26;;;;;;;59.47;22.90;;;-6.00;99.90;;;;;;5054804;28;20065;-79
2022/12/14 06:11:52;;;;;;;60.55;22.20;;;-6.10;99.90;;;;;;5021324;28;20041;-77
2022/12/14 06:14:18;;;;;;;57.28;21.13;;;-6.10;99.90;;;;;;5037603;28;20055;-78
2022/12/14 06:16:45;;;;;;;55.70;21.85;;;-6.20;99.90;;;;;;5056786;28;20394;-77
2022/12/14 06:19:13;;;;;;;59.35;20.58;;;-6.20;99.90;;;;;;5058452;28;20041;-77
2022/12/14 06:21:41;;;;;;;65.20;20.95;;;-6.20;99.90;;;;;;5041225;28;20487;-82
2022/12/14 06:24:08;;;;;;;57.63;21.65;;;-6.20;99.90;;;;;;5041579;28;20098;-77
2022/12/14 06:26:41;;;;;;;58.67;22.23;;;-6.30;99.90;;;;;;5057615;28;20041;-78
2022/12/14 06:29:12;;;;;;;56.50;21.55;;;-6.30;99.90;;;;;;5025285;28;20106;-80
2022/12/14 06:31:38;;;;;;;56.28;21.85;;;-6.30;99.90;;;;;;5041198;28;20045;-78
2022/12/14 06:34:04;;;;;;;65.07;22.17;;;-6.20;99.90;;;;;;5057884;28;20064;-79
2022/12/14 06:36:33;;;;;;;61.78;22.55;;;-6.20;99.90;;;;;;5041470;28;20475;-79
2022/12/14 06:39:17;;;;;;;65.97;23.63;;;-6.20;99.90;;;;;;5057674;28;20040;-78
2022/12/14 06:41:43;;;;;;;58.72;21.15;;;-6.20;99.90;;;;;;5057981;28;20045;-79
2022/12/14 06:44:15;;;;;;;55.10;19.90;;;-6.20;99.90;;;;;;5042238;28;20048;-79
2022/12/14 06:46:41;;;;;;;63.05;21.05;;;-6.30;99.90;;;;;;5024986;28;20037;-79
2022/12/14 06:49:10;;;;;;;59.53;22.05;;;-6.20;99.90;;;;;;5040696;28;20127;-78
2022/12/14 06:51:39;;;;;;;54.80;21.40;;;-6.20;99.90;;;;;;5057587;28;20037;-79
2022/12/14 06:54:05;;;;;;;55.90;20.70;;;-6.20;99.90;;;;;;5057429;28;20055;-78
2022/12/14 06:56:31;;;;;;;58.55;21.23;;;-6.30;99.90;;;;;;5057438;28;20037;-78
2022/12/14 06:58:57;;;;;;;61.03;22.15;;;-6.40;99.90;;;;;;5056831;28;20098;-78
2022/12/14 07:01:24;;;;;;;55.70;20.95;;;-6.40;99.90;;;;;;5041039;28;20088;-78
2022/12/14 07:03:52;;;;;;;55.67;20.08;;;-6.40;99.90;;;;;;5057495;28;20556;-78
2022/12/14 07:06:19;;;;;;;47.72;18.92;;;-5.40;99.90;;;;;;5040501;28;20055;-79
2022/12/14 07:08:45;;;;;;;51.78;18.63;;;-6.40;99.90;;;;;;5041155;28;20041;-78
2022/12/14 07:11:13;;;;;;;53.13;18.20;;;-6.50;99.90;;;;;;5024669;28;20501;-78
2022/12/14 07:13:39;;;;;;;57.55;19.33;;;-6.60;99.90;;;;;;5041166;28;20055;-78
2022/12/14 07:16:08;;;;;;;55.28;19.65;;;-6.60;99.90;;;;;;5056515;28;20063;-78
2022/12/14 07:18:34;;;;;;;53.53;18.98;;;-6.20;99.90;;;;;;5056809;28;20053;-79
2022/12/14 07:21:07;;;;;;;50.55;19.60;;;-6.60;99.90;;;;;;5039645;28;20044;-80
2022/12/14 07:23:36;;;;;;;50.15;18.63;;;-6.60;99.90;;;;;;5056674;28;20390;-78
2022/12/14 07:26:08;;;;;;;53.20;19.75;;;-6.60;99.90;;;;;;5039901;28;20032;-79
2022/12/14 07:28:37;;;;;;;53.92;19.60;;;-6.70;99.90;;;;;;5056546;28;20064;-78
2022/12/14 07:31:05;;;;;;;50.92;18.98;;;-6.70;99.90;;;;;;5040615;28;20064;-78
2022/12/14 07:33:31;;;;;;;53.75;19.30;;;-6.60;99.90;;;;;;5040750;28;20037;-78
2022/12/14 07:36:05;;;;;;;53.85;18.90;;;-6.60;99.90;;;;;;5056795;28;20489;-79
2022/12/14 07:38:32;;;;;;;57.03;19.30;;;-6.60;99.90;;;;;;5057784;28;20387;-79
2022/12/14 07:41:07;;;;;;;57.00;17.80;;;-6.70;99.90;;;;;;5056729;28;20069;-78
2022/12/14 07:43:33;;;;;;;51.78;18.15;;;-6.80;99.90;;;;;;5057182;28;20097;-78
2022/12/14 07:46:00;;;;;;;51.83;18.30;;;-6.80;99.90;;;;;;5056706;28;20041;-78
2022/12/14 07:48:26;;;;;;;47.65;18.38;;;-6.90;99.90;;;;;;5024269;28;20573;-78
2022/12/14 07:50:52;;;;;;;52.78;17.92;;;-6.80;99.90;;;;;;5039586;28;20131;-83
2022/12/14 07:53:18;;;;;;;52.35;19.08;;;-6.90;99.90;;;;;;5057423;28;20088;-78
2022/12/14 07:55:44;;;;;;;50.55;18.83;;;-6.90;99.90;;;;;;5057057;28;20048;-78
2022/12/14 07:58:10;;;;;;;52.88;18.65;;;-5.90;99.90;;;;;;5057252;28;20106;-78
2022/12/14 08:00:35;;;;;;;48.63;18.40;;;-6.80;99.90;;;;;;5057144;28;20466;-79
2022/12/14 08:03:01;;;;;;;50.85;19.35;;;-6.20;99.90;;;;;;5024029;28;20083;-78
2022/12/14 08:05:27;;;;;;;50.78;18.38;;;-6.80;99.90;;;;;;5040344;28;20478;-77
2022/12/14 08:07:53;;;;;;;52.72;18.35;;;-6.80;99.90;;;;;;5039846;28;20045;-78
2022/12/14 08:10:19;;;;;;;56.58;19.23;;;-6.80;99.90;;;;;;5039904;28;20056;-79
2022/12/14 08:12:48;;;;;;;50.90;17.63;;;-6.80;99.90;;;;;;5056567;28;20127;-79
2022/12/14 08:15:14;;;;;;;52.65;19.55;;;-6.80;99.90;;;;;;5039103;28;20148;-81
2022/12/14 08:17:40;;;;;;;48.80;19.52;;;-6.70;99.90;;;;;;5022832;28;20102;-78
2022/12/14 08:20:06;;;;;;;52.13;19.88;;;-6.50;99.90;;;;;;5022154;28;20044;-78
2022/12/14 08:22:32;;;;;;;56.00;19.00;;;-6.40;99.90;;;;;;5055135;28;20044;-79
2022/12/14 08:24:58;;;;;;;50.42;18.58;;;-6.30;99.90;;;;;;5021598;28;20102;-84
2022/12/14 08:27:23;;;;;;;46.85;17.80;;;-6.30;99.90;;;;;;5053893;28;20070;-77
2022/12/14 08:29:49;;;;;;;55.05;19.88;;;-6.30;99.90;;;;;;5037538;28;20040;-78
2022/12/14 08:32:15;;;;;;;53.50;19.30;;;-5.30;99.90;;;;;;5037500;28;20051;-78
2022/12/14 08:34:41;;;;;;;48.85;18.70;;;-6.10;99.90;;;;;;5053841;28;20037;-77
2022/12/14 08:37:06;;;;;;;58.85;20.50;;;-6.00;99.90;;;;;;5054086;28;20056;-78
2022/12/14 08:39:32;;;;;;;52.58;19.55;;;-5.90;99.90;;;;;;5036776;28;20502;-77
2022/12/14 08:41:58;;;;;;;57.08;19.63;;;-5.80;99.90;;;;;;5037536;28;20048;-78
2022/12/14 08:44:24;;;;;;;57.20;20.10;;;-5.70;99.90;;;;;;5053757;28;20045;-78
2022/12/14 08:46:49;;;;;;;53.78;19.92;;;-5.50;99.90;;;;;;5037205;28;20120;-78
2022/12/14 08:49:15;;;;;;;57.55;20.20;;;-5.40;99.90;;;;;;5021427;28;20045;-77
2022/12/14 08:51:41;;;;;;;54.05;19.63;;;-5.30;99.90;;;;;;5054896;28;20123;-77
2022/12/14 08:54:07;;;;;;;56.22;18.33;;;-5.20;99.90;;;;;;5055822;28;20493;-78
2022/12/14 08:56:33;;;;;;;51.10;18.58;;;-5.10;99.90;;;;;;5039427;28;20045;-78
2022/12/14 08:58:58;;;;;;;57.40;20.08;;;-5.00;99.90;;;;;;5038258;28;20041;-77
2022/12/14 09:01:27;;;;;;;55.53;19.55;;;-4.80;99.90;;;;;;5038148;28;20099;-78
2022/12/14 09:03:53;;;;;;;48.05;20.00;;;-4.70;99.90;;;;;;5054556;28;20045;-78
2022/12/14 09:06:26;;;;;;;49.85;18.60;;;-4.60;99.90;;;;;;5054340;28;20048;-79
2022/12/14 09:08:53;;;;;;;52.22;19.85;;;-4.30;99.90;;;;;;5037890;28;20037;-79
2022/12/14 09:11:20;;;;;;;50.25;18.48;;;-4.30;99.90;;;;;;5022363;28;20490;-78
2022/12/14 09:13:46;;;;;;;51.92;19.33;;;-4.20;99.90;;;;;;5038179;28;20555;-79
2022/12/14 09:16:18;;;;;;;55.22;19.23;;;-4.00;99.90;;;;;;5054295;28;20364;-79
2022/12/14 09:18:45;;;;;;;48.63;18.38;;;-3.90;99.90;;;;;;5054240;28;20041;-79
2022/12/14 09:21:11;;;;;;;48.35;18.48;;;-3.80;99.90;;;;;;5053905;28;20045;-79
2022/12/14 09:23:38;;;;;;;49.75;17.92;;;-3.70;99.90;;;;;;5037743;28;20126;-79
2022/12/14 09:26:10;;;;;;;45.97;18.45;;;-3.60;99.90;;;;;;5036717;28;20525;-79
2022/12/14 09:28:39;;;;;;;47.28;17.95;;;-3.40;99.90;;;;;;5036856;28;20112;-79
2022/12/14 09:31:08;;;;;;;49.42;17.92;;;-4.60;99.90;;;;;;5052933;28;20079;-79
2022/12/14 09:33:35;;;;;;;42.58;17.67;;;-3.30;99.90;;;;;;5053166;28;20048;-79
2022/12/14 09:36:03;;;;;;;49.38;18.77;;;-3.30;99.90;;;;;;5036838;28;20053;-80
2022/12/14 09:38:31;;;;;;;43.80;17.35;;;-3.20;99.90;;;;;;5036240;28;20049;-80
2022/12/14 09:41:01;;;;;;;49.88;18.35;;;-3.10;99.90;;;;;;5053354;28;20080;-80
2022/12/14 09:43:37;;;;;;;45.50;16.50;;;-3.00;99.90;;;;;;5053107;28;20418;-79
2022/12/14 09:46:29;;;;;;;46.58;18.27;;;-2.90;99.90;;;;;;5036663;28;20048;-80
2022/12/14 09:48:56;;;;;;;45.67;17.65;;;-2.80;99.90;;;;;;5036219;28;20478;-80
2022/12/14 09:51:33;;;;;;;49.53;18.58;;;-2.80;99.90;;;;;;5055654;28;20483;-79
2022/12/14 09:54:05;;;;;;;50.55;18.77;;;-2.60;99.90;;;;;;5058012;28;20267;-79
2022/12/14 09:56:32;;;;;;;50.40;18.30;;;-2.50;99.90;;;;;;5057479;28;20779;-79
2022/12/14 09:59:00;;;;;;;48.08;18.52;;;-2.40;99.90;;;;;;5057715;28;20052;-79
2022/12/14 10:02:10;;;;;;;43.03;18.98;;;-2.40;99.90;;;;;;5024281;28;20481;-79
2022/12/14 10:04:45;;;;;;;42.38;16.85;;;-2.30;99.90;;;;;;5004450;28;20054;-79
2022/12/14 10:07:33;;;;;;;43.22;18.30;;;-2.10;99.90;;;;;;5057013;28;20041;-80
2022/12/14 10:10:30;;;;;;;43.90;18.48;;;-2.10;99.90;;;;;;5056880;28;20040;-79
2022/12/14 10:13:17;;;;;;;48.30;19.25;;;-2.00;99.90;;;;;;5057194;28;20044;-78
2022/12/14 10:16:07;;;;;;;37.90;15.48;;;-1.90;99.90;;;;;;5057131;28;20057;-79
2022/12/14 10:19:18;;;;;;;40.60;16.23;;;-1.90;99.90;;;;;;5056205;28;20048;-79
2022/12/14 10:22:15;;;;;;;35.38;14.82;;;-1.90;99.90;;;;;;5040240;28;20093;-79
2022/12/14 10:24:50;;;;;;;34.65;15.38;;;-1.80;99.90;;;;;;5055696;28;20068;-79
2022/12/14 10:27:23;;;;;;;38.95;16.85;;;-1.80;99.90;;;;;;5056216;28;20033;-83
2022/12/14 10:30:05;;;;;;;41.38;14.70;;;-1.70;99.90;;;;;;5040001;28;20080;-79
2022/12/14 10:32:32;;;;;;;;;;;-1.60;99.90;;;;;;5039920;28;20055;-79
2022/12/14 10:35:06;;;;;;;36.08;15.77;;;-1.50;99.90;;;;;;5055587;28;20015;-79
2022/12/14 10:37:36;;;;;;;35.67;14.68;;;-1.50;99.90;;;;;;5055862;28;20055;-79
2022/12/14 10:40:16;;;;;;;37.15;14.82;;;-1.30;99.90;;;;;;5039794;28;20123;-79
2022/12/14 10:43:03;;;;;;;34.92;15.80;;;-1.40;99.90;;;;;;5038895;28;20444;-79
2022/12/14 10:45:53;;;;;;;39.38;16.08;;;-1.30;99.90;;;;;;5039220;28;20041;-79
2022/12/14 10:48:34;;;;;;;36.53;15.75;;;-1.20;99.90;;;;;;5054709;28;20144;-81
2022/12/14 10:51:06;;;;;;;30.83;14.35;;;-1.20;99.90;;;;;;5055272;28;20127;-79
2022/12/14 10:53:57;;;;;;;38.83;15.45;;;-2.10;99.90;;;;;;5038241;28;20114;-79
2022/12/14 10:56:35;;;;;;;36.22;15.15;;;-1.10;99.90;;;;;;5054555;28;20045;-79
2022/12/14 10:59:25;;;;;;;37.63;16.55;;;-0.90;99.90;;;;;;5072067;28;20430;-79
2022/12/14 11:02:05;;;;;;;37.83;15.05;;;-0.90;99.90;;;;;;5038738;28;20471;-80
2022/12/14 11:04:47;;;;;;;39.47;16.23;;;-0.90;99.90;;;;;;5038701;28;20475;-80
2022/12/14 11:07:15;;;;;;;39.25;15.57;;;-0.80;99.90;;;;;;5055795;28;20036;-80
2022/12/14 11:09:42;;;;;;;37.90;15.70;;;-0.70;99.90;;;;;;5054829;28;20041;-80
2022/12/14 11:12:16;;;;;;;35.95;16.10;;;-0.60;99.90;;;;;;5039401;28;20379;-78
2022/12/14 11:15:05;;;;;;;35.80;15.32;;;-0.50;99.90;;;;;;5038875;28;20064;-79
2022/12/14 11:17:31;;;;;;;35.38;16.10;;;-0.40;99.90;;;;;;5041944;28;20087;-79
2022/12/14 11:20:15;;;;;;;38.55;16.50;;;-0.30;99.90;;;;;;5041795;28;20075;-80
2022/12/14 11:22:55;;;;;;;38.13;16.67;;;-0.20;99.90;;;;;;5058504;28;20430;-80
2022/12/14 11:25:40;;;;;;;36.67;16.58;;;-0.10;99.90;;;;;;5058856;28;20048;-80
2022/12/14 11:28:29;;;;;;;39.55;16.77;;;0.40;99.90;;;;;;5058456;28;20505;-81
2022/12/14 11:31:09;;;;;;;35.50;15.40;;;1.00;99.90;;;;;;5058589;28;20041;-81
2022/12/14 11:33:47;;;;;;;34.08;15.38;;;1.50;99.90;;;;;;5041567;28;20051;-81
2022/12/14 11:36:24;;;;;;;39.42;15.52;;;2.10;99.90;;;;;;5057960;28;20137;-80
2022/12/14 11:38:58;;;;;;;34.17;15.80;;;2.50;99.90;;;;;;5057606;28;20040;-84
2022/12/14 11:41:31;;;;;;;36.22;16.52;;;2.90;99.90;;;;;;5038039;28;20049;-81
2022/12/14 11:44:21;;;;;;;35.20;16.70;;;3.60;99.90;;;;;;5037151;28;20048;-82
2022/12/14 11:46:51;;;;;;;33.63;15.02;;;3.30;99.90;;;;;;5038614;28;20045;-82
2022/12/14 11:49:42;;;;;;;29.70;14.40;;;3.50;99.90;;;;;;5055262;28;20056;-79
2022/12/14 11:52:17;;;;;;;31.80;15.80;;;3.70;99.90;;;;;;5038184;28;20048;-80
2022/12/14 11:55:10;;;;;;;30.70;15.02;;;4.30;99.90;;;;;;5021671;28;20047;-80
2022/12/14 11:57:52;;;;;;;28.70;14.65;;;4.10;99.20;;;;;;5046535;28;20052;-81
2022/12/14 12:00:37;;;;;;;28.15;14.40;;;4.40;99.90;;;;;;5037838;28;20040;-82
2022/12/14 12:03:40;;;;;;;27.20;13.75;;;4.60;74.80;;;;;;5037329;28;20052;-82
2022/12/14 12:06:09;;;;;;;28.05;14.50;;;4.60;8.10;;;;;;5006131;28;20487;-81
2022/12/14 12:08:41;;;;;;;24.95;13.32;;;5.10;99.90;;;;;;5037293;28;20041;-81
2022/12/14 12:11:23;;;;;;;27.85;14.30;;;5.10;99.90;;;;;;5037431;28;20078;-81
2022/12/14 12:13:52;;;;;;;28.35;14.48;;;5.20;1.00;;;;;;5036563;28;20040;-81
2022/12/14 12:16:24;;;;;;;28.83;15.02;;;5.30;99.90;;;;;;5036532;28;20053;-81
2022/12/14 12:18:53;;;;;;;28.33;15.02;;;5.50;99.90;;;;;;5036976;28;20049;-80
2022/12/14 12:21:28;;;;;;;26.98;14.50;;;5.60;99.90;;;;;;5021585;28;20041;-80
2022/12/14 12:24:12;;;;;;;29.27;15.68;;;5.90;99.90;;;;;;5021898;28;20148;-80
2022/12/14 12:26:56;;;;;;;28.25;14.15;;;6.10;99.90;;;;;;5038854;28;20374;-80
2022/12/14 12:29:35;;;;;;;27.73;14.98;;;6.40;99.90;;;;;;5054796;28;20128;-80
2022/12/14 12:32:18;;;;;;;27.15;15.18;;;6.50;99.90;;;;;;5021803;28;20041;-80
2022/12/14 12:34:56;;;;;;;27.30;15.38;;;6.50;99.90;;;;;;5021234;28;20052;-80
2022/12/14 12:37:39;;;;;;;26.70;14.32;;;6.70;6.60;;;;;;5037800;28;20486;-80
2022/12/14 12:40:16;;;;;;;25.83;14.18;;;6.90;99.90;;;;;;5037889;28;20491;-79
2022/12/14 12:42:53;;;;;;;27.35;15.02;;;6.80;1.00;;;;;;5038084;28;20049;-79
2022/12/14 12:45:22;;;;;;;26.85;14.98;;;6.70;1.00;;;;;;5021100;28;20048;-80
2022/12/14 12:48:00;;;;;;;25.73;13.95;;;6.90;99.90;;;;;;5036840;28;20048;-80
2022/12/14 12:50:31;;;;;;;24.35;14.35;;;7.10;99.90;;;;;;5038142;28;20044;-81
2022/12/14 12:53:13;;;;;;;25.47;14.23;;;7.00;99.90;;;;;;5037216;28;20048;-81
2022/12/14 12:56:12;;;;;;;25.10;14.95;;;7.20;92.80;;;;;;5036051;28;20049;-81
2022/12/14 12:58:39;;;;;;;25.17;14.10;;;7.20;99.90;;;;;;5036702;28;20194;-83
2022/12/14 13:01:25;;;;;;;26.33;14.38;;;6.80;99.90;;;;;;5036161;28;20479;-81
2022/12/14 13:03:58;;;;;;;25.83;15.05;;;6.70;99.90;;;;;;5025491;28;20075;-81
2022/12/14 13:06:49;;;;;;;24.48;14.20;;;6.80;99.90;;;;;;5036155;28;20041;-80
2022/12/14 13:09:38;;;;;;;27.30;14.85;;;6.80;99.90;;;;;;5035906;28;20045;-80
2022/12/14 13:12:17;;;;;;;26.13;14.57;;;7.00;1.00;;;;;;5035737;28;20051;-81